Altnaharra, United Kingdom

12:08 AM BST on October 23, 2014 (GMT +0100)
ISUTHERL3 | Change Station
CLOSE
Current Station
Personal Weather Station
Location: Shinness, Sutherland
Elevation: 436 ft
Nearby Weather Stations

Elev 436 ft 58.08 °N, 4.44 °W | Updated 14 seconds ago

Mostly Cloudy
Mostly Cloudy
53.2 °F
Feels Like 53.2 °F
N
3.1
Wind Variable Wind from South
Gusts 7.6 mph

Today
High -- | Low -- °F
--% Chance of Precip.
Yesterday
High -- | Low -- °F
Precip. -- in
8:11 AM 5:51 PM
Waning Crescent, 1% visible
Pressure 29.65 in
Visibility 6.2 miles
Clouds Mostly Cloudy 2800 ft
Dew Point 50 °F
Humidity 90%
Rainfall 0.00 in
Snow Depth Not available.
UV 0 out of 12
Pollen Not available.
Air Quality Not available.
Flu Activity Not available.
METAR EGPC 222250Z AUTO 29009KT 260V320 9999 BKN028/// 11/10 Q1004

More Conditions Fewer Conditions

Pressure 29.65 in
Visibility 6.2 miles
Clouds Mostly Cloudy 2800 ft
Dew Point 50 °F
Humidity 90%
Rainfall 0.00 in
Snow Depth Not available.
UV 0 out of 12
Pollen Not available.
Air Quality Not available.
Flu Activity Not available.
METAR EGPC 222250Z AUTO 29009KT 260V320 9999 BKN028/// 11/10 Q1004

More Conditions Fewer Conditions

10-Day Weather Forecast

Almanac

Astronomy

Oct. 23, 2014 Rise Set
Actual Time 8:11 AM BST 5:51 PM BST
Civil Twilight 7:30 AM BST 6:32 PM BST
Nautical Twilight 6:44 AM BST 7:18 PM BST
Astronomical Twilight 5:58 AM BST 8:04 PM BST
Moon 7:30 AM BST (10/23) 5:47 PM BST (10/23)
Length of Visible Light 11h 02m
Length of Day
9h 40m
Tomorrow will be 4m 55s shorter.
Waning Crescent, 1% of the Moon is Illuminated
Oct 22
Waning Crescent
Oct 23
New
Oct 30
First Quarter
Nov 6
Full
Nov 14
Last Quarter

Yesterday's Extremes

Country Highs Country Lows

Community

WunderPhotos

Upload Photos

1,764,071 photos uploaded!

WunderBlogs® & News

Nearby

Snow Depth

Not available.

Earthquake Activity

City Distance Mag. Time & Date
No recent earthquake activity has been reported nearby.
Minimum magnitude displayed is 2.5.

Coastal Water Temperatures

Place Temperature
No Stations Reporting

Nearby Weather Stations